sensor_id;sensor_type;location;lat;lon;timestamp;P1;durP1;ratioP1;P2;durP2;ratioP2
27293;SDS011;14785;52.556;13.430;2023-03-30T00:02:25;2.83;;;2.03;;
27293;SDS011;14785;52.556;13.430;2023-03-30T00:04:56;4.10;;;2.38;;
27293;SDS011;14785;52.556;13.430;2023-03-30T00:07:27;7.28;;;3.58;;
27293;SDS011;14785;52.556;13.430;2023-03-30T00:09:54;6.32;;;4.05;;
27293;SDS011;14785;52.556;13.430;2023-03-30T00:12:19;6.23;;;3.20;;
27293;SDS011;14785;52.556;13.430;2023-03-30T00:14:45;8.40;;;4.27;;
27293;SDS011;14785;52.556;13.430;2023-03-30T00:17:10;4.87;;;3.57;;
27293;SDS011;14785;52.556;13.430;2023-03-30T00:19:36;7.78;;;3.50;;
27293;SDS011;14785;52.556;13.430;2023-03-30T00:22:05;7.43;;;4.57;;
27293;SDS011;14785;52.556;13.430;2023-03-30T00:24:33;8.52;;;3.63;;
27293;SDS011;14785;52.556;13.430;2023-03-30T00:27:01;7.90;;;3.72;;
27293;SDS011;14785;52.556;13.430;2023-03-30T00:29:28;5.65;;;3.58;;
27293;SDS011;14785;52.556;13.430;2023-03-30T00:31:53;5.77;;;2.70;;
27293;SDS011;14785;52.556;13.430;2023-03-30T00:34:19;7.07;;;4.50;;
27293;SDS011;14785;52.556;13.430;2023-03-30T00:36:44;6.50;;;3.70;;
27293;SDS011;14785;52.556;13.430;2023-03-30T00:39:10;6.45;;;4.50;;
27293;SDS011;14785;52.556;13.430;2023-03-30T00:41:37;9.40;;;3.97;;
27293;SDS011;14785;52.556;13.430;2023-03-30T00:44:05;8.18;;;4.70;;
27293;SDS011;14785;52.556;13.430;2023-03-30T00:46:33;10.43;;;4.88;;
27293;SDS011;14785;52.556;13.430;2023-03-30T00:49:08;10.07;;;3.67;;
27293;SDS011;14785;52.556;13.430;2023-03-30T00:51:35;8.73;;;4.15;;
27293;SDS011;14785;52.556;13.430;2023-03-30T00:54:06;7.43;;;4.00;;
27293;SDS011;14785;52.556;13.430;2023-03-30T00:56:37;6.28;;;3.67;;
27293;SDS011;14785;52.556;13.430;2023-03-30T00:59:02;7.28;;;4.32;;
27293;SDS011;14785;52.556;13.430;2023-03-30T01:01:28;9.32;;;5.18;;
27293;SDS011;14785;52.556;13.430;2023-03-30T01:04:02;4.55;;;2.83;;
27293;SDS011;14785;52.556;13.430;2023-03-30T01:06:30;6.63;;;4.13;;
27293;SDS011;14785;52.556;13.430;2023-03-30T01:08:58;7.63;;;4.15;;
27293;SDS011;14785;52.556;13.430;2023-03-30T01:14:00;8.85;;;3.50;;
27293;SDS011;14785;52.556;13.430;2023-03-30T01:30:30;10.20;;;4.80;;
27293;SDS011;14785;52.556;13.430;2023-03-30T01:46:58;9.30;;;4.03;;
27293;SDS011;14785;52.556;13.430;2023-03-30T01:54:44;6.95;;;3.65;;
27293;SDS011;14785;52.556;13.430;2023-03-30T01:59:40;11.27;;;3.43;;
27293;SDS011;14785;52.556;13.430;2023-03-30T02:02:14;10.05;;;3.60;;
27293;SDS011;14785;52.556;13.430;2023-03-30T02:04:42;7.45;;;3.13;;
27293;SDS011;14785;52.556;13.430;2023-03-30T02:07:13;5.63;;;3.60;;
27293;SDS011;14785;52.556;13.430;2023-03-30T02:09:41;7.15;;;3.72;;
27293;SDS011;14785;52.556;13.430;2023-03-30T02:12:10;7.28;;;3.25;;
27293;SDS011;14785;52.556;13.430;2023-03-30T02:14:37;9.05;;;4.70;;
27293;SDS011;14785;52.556;13.430;2023-03-30T02:17:26;8.13;;;3.53;;
27293;SDS011;14785;52.556;13.430;2023-03-30T02:19:52;9.63;;;4.30;;
27293;SDS011;14785;52.556;13.430;2023-03-30T02:22:18;8.23;;;5.10;;
27293;SDS011;14785;52.556;13.430;2023-03-30T02:24:45;10.18;;;4.05;;
27293;SDS011;14785;52.556;13.430;2023-03-30T02:27:13;6.97;;;3.35;;
27293;SDS011;14785;52.556;13.430;2023-03-30T02:29:40;5.53;;;3.03;;
27293;SDS011;14785;52.556;13.430;2023-03-30T02:32:13;8.07;;;4.05;;
27293;SDS011;14785;52.556;13.430;2023-03-30T02:54:00;7.20;;;4.23;;
27293;SDS011;14785;52.556;13.430;2023-03-30T02:56:36;7.10;;;3.63;;
27293;SDS011;14785;52.556;13.430;2023-03-30T02:59:10;12.55;;;4.57;;
27293;SDS011;14785;52.556;13.430;2023-03-30T03:01:55;9.00;;;4.10;;
27293;SDS011;14785;52.556;13.430;2023-03-30T03:04:26;6.82;;;4.00;;
27293;SDS011;14785;52.556;13.430;2023-03-30T03:06:53;10.23;;;4.07;;
27293;SDS011;14785;52.556;13.430;2023-03-30T03:11:45;5.43;;;3.30;;
27293;SDS011;14785;52.556;13.430;2023-03-30T03:14:11;7.10;;;3.93;;
27293;SDS011;14785;52.556;13.430;2023-03-30T03:16:36;6.07;;;3.73;;
27293;SDS011;14785;52.556;13.430;2023-03-30T03:19:02;7.13;;;4.63;;
27293;SDS011;14785;52.556;13.430;2023-03-30T03:21:28;9.05;;;3.70;;
27293;SDS011;14785;52.556;13.430;2023-03-30T03:23:53;5.03;;;3.13;;
27293;SDS011;14785;52.556;13.430;2023-03-30T03:26:18;6.47;;;3.67;;
27293;SDS011;14785;52.556;13.430;2023-03-30T03:28:44;8.50;;;4.47;;
27293;SDS011;14785;52.556;13.430;2023-03-30T03:31:09;7.97;;;4.40;;
27293;SDS011;14785;52.556;13.430;2023-03-30T03:36:01;5.27;;;3.67;;
27293;SDS011;14785;52.556;13.430;2023-03-30T03:38:27;17.03;;;4.97;;
27293;SDS011;14785;52.556;13.430;2023-03-30T03:40:53;6.82;;;3.30;;
27293;SDS011;14785;52.556;13.430;2023-03-30T03:43:21;6.07;;;4.03;;
27293;SDS011;14785;52.556;13.430;2023-03-30T03:45:47;6.95;;;3.80;;
27293;SDS011;14785;52.556;13.430;2023-03-30T03:50:40;8.05;;;4.93;;
27293;SDS011;14785;52.556;13.430;2023-03-30T03:53:06;7.10;;;3.57;;
27293;SDS011;14785;52.556;13.430;2023-03-30T03:55:32;7.28;;;4.75;;
27293;SDS011;14785;52.556;13.430;2023-03-30T03:57:59;9.90;;;4.72;;
27293;SDS011;14785;52.556;13.430;2023-03-30T04:00:25;9.98;;;4.85;;
27293;SDS011;14785;52.556;13.430;2023-03-30T04:02:50;5.43;;;3.57;;
27293;SDS011;14785;52.556;13.430;2023-03-30T04:05:16;10.93;;;3.80;;
27293;SDS011;14785;52.556;13.430;2023-03-30T04:07:42;11.73;;;4.53;;
27293;SDS011;14785;52.556;13.430;2023-03-30T04:10:10;7.63;;;3.85;;
27293;SDS011;14785;52.556;13.430;2023-03-30T04:12:37;9.02;;;4.72;;
27293;SDS011;14785;52.556;13.430;2023-03-30T04:15:03;7.75;;;3.42;;
27293;SDS011;14785;52.556;13.430;2023-03-30T04:17:30;10.05;;;4.28;;
27293;SDS011;14785;52.556;13.430;2023-03-30T04:19:57;6.95;;;4.05;;
27293;SDS011;14785;52.556;13.430;2023-03-30T04:22:28;5.43;;;3.80;;
27293;SDS011;14785;52.556;13.430;2023-03-30T04:25:00;9.65;;;4.30;;
27293;SDS011;14785;52.556;13.430;2023-03-30T04:27:30;6.75;;;4.07;;
27293;SDS011;14785;52.556;13.430;2023-03-30T04:29:56;8.98;;;4.30;;
27293;SDS011;14785;52.556;13.430;2023-03-30T04:32:25;12.50;;;5.20;;
27293;SDS011;14785;52.556;13.430;2023-03-30T04:34:50;48.70;;;16.30;;
27293;SDS011;14785;52.556;13.430;2023-03-30T04:37:21;8.18;;;4.97;;
27293;SDS011;14785;52.556;13.430;2023-03-30T04:39:54;8.55;;;4.82;;
27293;SDS011;14785;52.556;13.430;2023-03-30T04:42:21;9.13;;;4.43;;
27293;SDS011;14785;52.556;13.430;2023-03-30T04:44:57;12.55;;;4.93;;
27293;SDS011;14785;52.556;13.430;2023-03-30T04:47:25;6.78;;;3.63;;
27293;SDS011;14785;52.556;13.430;2023-03-30T04:49:51;7.60;;;4.38;;
27293;SDS011;14785;52.556;13.430;2023-03-30T04:52:17;6.53;;;3.77;;
27293;SDS011;14785;52.556;13.430;2023-03-30T04:54:43;8.75;;;3.85;;
27293;SDS011;14785;52.556;13.430;2023-03-30T04:57:09;18.60;;;5.93;;
27293;SDS011;14785;52.556;13.430;2023-03-30T04:59:35;8.15;;;4.55;;
27293;SDS011;14785;52.556;13.430;2023-03-30T05:02:00;9.23;;;4.57;;
27293;SDS011;14785;52.556;13.430;2023-03-30T05:04:27;9.80;;;5.50;;
27293;SDS011;14785;52.556;13.430;2023-03-30T05:06:54;12.73;;;4.13;;
27293;SDS011;14785;52.556;13.430;2023-03-30T05:09:21;6.85;;;3.75;;
27293;SDS011;14785;52.556;13.430;2023-03-30T05:11:47;13.95;;;5.28;;
27293;SDS011;14785;52.556;13.430;2023-03-30T05:14:13;11.52;;;6.25;;
27293;SDS011;14785;52.556;13.430;2023-03-30T05:16:38;12.07;;;4.73;;
27293;SDS011;14785;52.556;13.430;2023-03-30T05:19:04;8.50;;;3.80;;
27293;SDS011;14785;52.556;13.430;2023-03-30T05:21:29;6.00;;;4.13;;
27293;SDS011;14785;52.556;13.430;2023-03-30T05:23:58;8.95;;;4.63;;
27293;SDS011;14785;52.556;13.430;2023-03-30T05:26:23;6.57;;;3.30;;
27293;SDS011;14785;52.556;13.430;2023-03-30T05:28:49;6.80;;;3.80;;
27293;SDS011;14785;52.556;13.430;2023-03-30T05:33:41;7.50;;;3.75;;
27293;SDS011;14785;52.556;13.430;2023-03-30T05:36:07;9.30;;;3.50;;
27293;SDS011;14785;52.556;13.430;2023-03-30T05:38:33;8.85;;;4.30;;
27293;SDS011;14785;52.556;13.430;2023-03-30T05:40:58;4.97;;;3.22;;
27293;SDS011;14785;52.556;13.430;2023-03-30T05:43:24;8.97;;;4.43;;
27293;SDS011;14785;52.556;13.430;2023-03-30T05:45:49;6.13;;;3.37;;
27293;SDS011;14785;52.556;13.430;2023-03-30T05:48:15;5.07;;;3.73;;
27293;SDS011;14785;52.556;13.430;2023-03-30T05:50:40;6.47;;;3.60;;
27293;SDS011;14785;52.556;13.430;2023-03-30T05:53:07;7.32;;;4.07;;
27293;SDS011;14785;52.556;13.430;2023-03-30T05:55:32;6.40;;;3.45;;
27293;SDS011;14785;52.556;13.430;2023-03-30T05:57:58;5.37;;;3.67;;
27293;SDS011;14785;52.556;13.430;2023-03-30T06:00:24;6.53;;;3.13;;
27293;SDS011;14785;52.556;13.430;2023-03-30T06:02:50;6.15;;;3.13;;
27293;SDS011;14785;52.556;13.430;2023-03-30T06:05:16;5.57;;;3.38;;
27293;SDS011;14785;52.556;13.430;2023-03-30T06:07:42;8.23;;;3.22;;
27293;SDS011;14785;52.556;13.430;2023-03-30T06:10:09;10.05;;;3.58;;
27293;SDS011;14785;52.556;13.430;2023-03-30T06:12:37;9.30;;;4.60;;
27293;SDS011;14785;52.556;13.430;2023-03-30T06:17:29;7.22;;;3.40;;
27293;SDS011;14785;52.556;13.430;2023-03-30T06:19:55;6.07;;;3.53;;
27293;SDS011;14785;52.556;13.430;2023-03-30T06:22:21;5.97;;;3.25;;
27293;SDS011;14785;52.556;13.430;2023-03-30T06:24:47;6.40;;;3.90;;
27293;SDS011;14785;52.556;13.430;2023-03-30T06:27:13;8.47;;;3.30;;
27293;SDS011;14785;52.556;13.430;2023-03-30T06:29:38;7.23;;;3.90;;
27293;SDS011;14785;52.556;13.430;2023-03-30T06:32:04;8.43;;;3.37;;
27293;SDS011;14785;52.556;13.430;2023-03-30T06:34:30;5.43;;;2.70;;
27293;SDS011;14785;52.556;13.430;2023-03-30T06:36:56;6.68;;;3.47;;
27293;SDS011;14785;52.556;13.430;2023-03-30T06:39:21;14.48;;;3.55;;
27293;SDS011;14785;52.556;13.430;2023-03-30T06:41:47;4.37;;;2.37;;
27293;SDS011;14785;52.556;13.430;2023-03-30T06:44:12;5.90;;;3.00;;
27293;SDS011;14785;52.556;13.430;2023-03-30T06:46:41;4.32;;;3.13;;
27293;SDS011;14785;52.556;13.430;2023-03-30T06:49:07;14.50;;;4.17;;
27293;SDS011;14785;52.556;13.430;2023-03-30T06:51:35;6.20;;;2.70;;
27293;SDS011;14785;52.556;13.430;2023-03-30T06:54:00;6.23;;;3.37;;
27293;SDS011;14785;52.556;13.430;2023-03-30T06:56:26;4.72;;;2.80;;
27293;SDS011;14785;52.556;13.430;2023-03-30T06:58:52;9.07;;;2.87;;
27293;SDS011;14785;52.556;13.430;2023-03-30T07:01:17;6.83;;;3.17;;
27293;SDS011;14785;52.556;13.430;2023-03-30T07:03:43;5.03;;;3.00;;
27293;SDS011;14785;52.556;13.430;2023-03-30T07:06:09;4.57;;;2.78;;
27293;SDS011;14785;52.556;13.430;2023-03-30T07:08:36;7.30;;;2.83;;
27293;SDS011;14785;52.556;13.430;2023-03-30T07:11:03;5.95;;;3.10;;
27293;SDS011;14785;52.556;13.430;2023-03-30T07:15:54;7.70;;;2.38;;
27293;SDS011;14785;52.556;13.430;2023-03-30T07:18:20;5.67;;;2.97;;
27293;SDS011;14785;52.556;13.430;2023-03-30T07:20:45;5.30;;;2.63;;
27293;SDS011;14785;52.556;13.430;2023-03-30T07:23:11;9.50;;;3.10;;
27293;SDS011;14785;52.556;13.430;2023-03-30T07:25:37;4.95;;;2.53;;
27293;SDS011;14785;52.556;13.430;2023-03-30T07:28:03;4.70;;;2.83;;
27293;SDS011;14785;52.556;13.430;2023-03-30T07:30:32;6.38;;;2.90;;
27293;SDS011;14785;52.556;13.430;2023-03-30T07:32:59;8.55;;;4.00;;
27293;SDS011;14785;52.556;13.430;2023-03-30T07:35:24;6.40;;;2.70;;
27293;SDS011;14785;52.556;13.430;2023-03-30T07:37:51;5.72;;;3.00;;
27293;SDS011;14785;52.556;13.430;2023-03-30T07:40:16;7.60;;;3.43;;
27293;SDS011;14785;52.556;13.430;2023-03-30T07:42:42;7.65;;;4.05;;
27293;SDS011;14785;52.556;13.430;2023-03-30T07:45:08;6.17;;;3.53;;
27293;SDS011;14785;52.556;13.430;2023-03-30T07:47:34;12.45;;;2.88;;
27293;SDS011;14785;52.556;13.430;2023-03-30T07:50:00;8.98;;;2.85;;
27293;SDS011;14785;52.556;13.430;2023-03-30T07:52:25;4.47;;;2.57;;
27293;SDS011;14785;52.556;13.430;2023-03-30T07:54:51;4.67;;;2.77;;
27293;SDS011;14785;52.556;13.430;2023-03-30T07:57:18;5.80;;;2.67;;
27293;SDS011;14785;52.556;13.430;2023-03-30T08:02:11;3.42;;;2.58;;
27293;SDS011;14785;52.556;13.430;2023-03-30T08:04:38;8.88;;;3.85;;
27293;SDS011;14785;52.556;13.430;2023-03-30T08:07:04;4.50;;;2.42;;
27293;SDS011;14785;52.556;13.430;2023-03-30T08:09:29;3.43;;;2.57;;
27293;SDS011;14785;52.556;13.430;2023-03-30T08:11:55;8.10;;;3.47;;
27293;SDS011;14785;52.556;13.430;2023-03-30T08:14:21;3.28;;;2.38;;
27293;SDS011;14785;52.556;13.430;2023-03-30T08:16:47;5.32;;;2.78;;
27293;SDS011;14785;52.556;13.430;2023-03-30T08:19:13;3.92;;;2.35;;
27293;SDS011;14785;52.556;13.430;2023-03-30T08:21:38;6.83;;;2.90;;
27293;SDS011;14785;52.556;13.430;2023-03-30T08:24:04;4.13;;;2.13;;
27293;SDS011;14785;52.556;13.430;2023-03-30T08:26:30;7.13;;;2.83;;
27293;SDS011;14785;52.556;13.430;2023-03-30T08:28:55;3.30;;;2.23;;
27293;SDS011;14785;52.556;13.430;2023-03-30T08:31:21;6.60;;;2.42;;
27293;SDS011;14785;52.556;13.430;2023-03-30T08:33:47;3.23;;;2.10;;
27293;SDS011;14785;52.556;13.430;2023-03-30T08:36:13;5.07;;;2.83;;
27293;SDS011;14785;52.556;13.430;2023-03-30T08:38:39;8.98;;;2.60;;
27293;SDS011;14785;52.556;13.430;2023-03-30T08:43:50;6.13;;;2.28;;
27293;SDS011;14785;52.556;13.430;2023-03-30T08:46:18;8.50;;;4.35;;
27293;SDS011;14785;52.556;13.430;2023-03-30T08:48:45;7.75;;;3.33;;
27293;SDS011;14785;52.556;13.430;2023-03-30T08:51:31;5.95;;;3.15;;
27293;SDS011;14785;52.556;13.430;2023-03-30T08:54:20;6.25;;;2.60;;
27293;SDS011;14785;52.556;13.430;2023-03-30T09:05:00;7.53;;;1.77;;
27293;SDS011;14785;52.556;13.430;2023-03-30T09:10:16;4.60;;;1.83;;
27293;SDS011;14785;52.556;13.430;2023-03-30T09:15:23;2.08;;;1.30;;
27293;SDS011;14785;52.556;13.430;2023-03-30T09:17:59;4.18;;;2.22;;
27293;SDS011;14785;52.556;13.430;2023-03-30T09:20:29;3.33;;;1.63;;
27293;SDS011;14785;52.556;13.430;2023-03-30T09:23:00;4.55;;;1.85;;
27293;SDS011;14785;52.556;13.430;2023-03-30T09:25:41;9.50;;;3.00;;
27293;SDS011;14785;52.556;13.430;2023-03-30T09:28:23;1.95;;;1.23;;
27293;SDS011;14785;52.556;13.430;2023-03-30T09:33:43;3.33;;;1.38;;
27293;SDS011;14785;52.556;13.430;2023-03-30T09:36:38;5.78;;;1.98;;
27293;SDS011;14785;52.556;13.430;2023-03-30T09:39:41;3.72;;;1.48;;
27293;SDS011;14785;52.556;13.430;2023-03-30T09:47:18;4.85;;;1.83;;
27293;SDS011;14785;52.556;13.430;2023-03-30T09:49:45;6.68;;;1.90;;
27293;SDS011;14785;52.556;13.430;2023-03-30T09:52:30;9.83;;;1.37;;
27293;SDS011;14785;52.556;13.430;2023-03-30T09:57:44;4.78;;;1.63;;
27293;SDS011;14785;52.556;13.430;2023-03-30T10:00:27;2.27;;;1.03;;
27293;SDS011;14785;52.556;13.430;2023-03-30T10:05:24;2.60;;;1.48;;
27293;SDS011;14785;52.556;13.430;2023-03-30T10:07:52;2.85;;;1.00;;
27293;SDS011;14785;52.556;13.430;2023-03-30T10:12:55;4.88;;;1.63;;
27293;SDS011;14785;52.556;13.430;2023-03-30T10:15:27;4.22;;;0.85;;
27293;SDS011;14785;52.556;13.430;2023-03-30T10:17:55;4.25;;;2.03;;
27293;SDS011;14785;52.556;13.430;2023-03-30T10:20:28;4.68;;;1.55;;
27293;SDS011;14785;52.556;13.430;2023-03-30T10:23:13;5.10;;;1.73;;
27293;SDS011;14785;52.556;13.430;2023-03-30T10:25:43;3.95;;;1.23;;
27293;SDS011;14785;52.556;13.430;2023-03-30T10:28:15;8.20;;;2.30;;
27293;SDS011;14785;52.556;13.430;2023-03-30T10:30:41;2.72;;;1.33;;
27293;SDS011;14785;52.556;13.430;2023-03-30T10:33:18;9.07;;;1.67;;
27293;SDS011;14785;52.556;13.430;2023-03-30T10:35:44;9.73;;;2.50;;
27293;SDS011;14785;52.556;13.430;2023-03-30T10:38:12;2.65;;;1.42;;
27293;SDS011;14785;52.556;13.430;2023-03-30T10:43:22;2.20;;;1.30;;
27293;SDS011;14785;52.556;13.430;2023-03-30T10:45:54;4.75;;;1.88;;
27293;SDS011;14785;52.556;13.430;2023-03-30T10:48:22;6.57;;;1.73;;
27293;SDS011;14785;52.556;13.430;2023-03-30T10:51:05;5.57;;;1.77;;
27293;SDS011;14785;52.556;13.430;2023-03-30T10:53:38;6.55;;;1.75;;
27293;SDS011;14785;52.556;13.430;2023-03-30T10:58:59;2.92;;;1.23;;
27293;SDS011;14785;52.556;13.430;2023-03-30T11:04:31;11.77;;;2.00;;
27293;SDS011;14785;52.556;13.430;2023-03-30T11:07:23;3.10;;;1.50;;
27293;SDS011;14785;52.556;13.430;2023-03-30T11:09:54;2.65;;;1.00;;
27293;SDS011;14785;52.556;13.430;2023-03-30T11:12:28;14.18;;;2.35;;
27293;SDS011;14785;52.556;13.430;2023-03-30T11:15:08;3.65;;;1.50;;
27293;SDS011;14785;52.556;13.430;2023-03-30T11:17:54;2.23;;;1.13;;
27293;SDS011;14785;52.556;13.430;2023-03-30T11:20:33;2.97;;;1.80;;
27293;SDS011;14785;52.556;13.430;2023-03-30T11:25:33;10.37;;;2.40;;
27293;SDS011;14785;52.556;13.430;2023-03-30T11:34:04;2.22;;;1.38;;
27293;SDS011;14785;52.556;13.430;2023-03-30T11:39:44;2.30;;;1.15;;
27293;SDS011;14785;52.556;13.430;2023-03-30T11:42:24;2.85;;;1.40;;
27293;SDS011;14785;52.556;13.430;2023-03-30T11:44:55;6.00;;;1.58;;
27293;SDS011;14785;52.556;13.430;2023-03-30T11:47:46;3.45;;;1.20;;
27293;SDS011;14785;52.556;13.430;2023-03-30T12:04:09;6.18;;;1.55;;
27293;SDS011;14785;52.556;13.430;2023-03-30T12:06:40;3.95;;;1.88;;
27293;SDS011;14785;52.556;13.430;2023-03-30T12:09:21;3.33;;;1.85;;
27293;SDS011;14785;52.556;13.430;2023-03-30T12:17:01;1.13;;;1.00;;
27293;SDS011;14785;52.556;13.430;2023-03-30T12:19:48;4.70;;;1.42;;
27293;SDS011;14785;52.556;13.430;2023-03-30T12:22:33;5.00;;;1.42;;
27293;SDS011;14785;52.556;13.430;2023-03-30T12:25:11;9.45;;;2.80;;
27293;SDS011;14785;52.556;13.430;2023-03-30T12:30:27;2.42;;;1.30;;
27293;SDS011;14785;52.556;13.430;2023-03-30T12:33:12;6.68;;;2.95;;
27293;SDS011;14785;52.556;13.430;2023-03-30T12:38:19;3.25;;;1.10;;
27293;SDS011;14785;52.556;13.430;2023-03-30T12:40:51;3.47;;;1.10;;
27293;SDS011;14785;52.556;13.430;2023-03-30T12:46:34;5.97;;;1.40;;
27293;SDS011;14785;52.556;13.430;2023-03-30T12:54:39;2.72;;;1.55;;
27293;SDS011;14785;52.556;13.430;2023-03-30T13:05:48;3.85;;;1.33;;
27293;SDS011;14785;52.556;13.430;2023-03-30T13:08:28;5.70;;;1.88;;
27293;SDS011;14785;52.556;13.430;2023-03-30T13:11:18;2.22;;;0.90;;
27293;SDS011;14785;52.556;13.430;2023-03-30T13:24:44;5.18;;;1.70;;
27293;SDS011;14785;52.556;13.430;2023-03-30T13:29:39;2.17;;;1.52;;
27293;SDS011;14785;52.556;13.430;2023-03-30T13:37:26;2.78;;;1.20;;
27293;SDS011;14785;52.556;13.430;2023-03-30T13:40:06;5.43;;;2.10;;
27293;SDS011;14785;52.556;13.430;2023-03-30T13:42:47;6.00;;;1.17;;
27293;SDS011;14785;52.556;13.430;2023-03-30T13:50:52;7.53;;;1.50;;
27293;SDS011;14785;52.556;13.430;2023-03-30T13:53:20;9.30;;;1.80;;
27293;SDS011;14785;52.556;13.430;2023-03-30T13:55:55;5.03;;;1.08;;
27293;SDS011;14785;52.556;13.430;2023-03-30T13:58:30;1.10;;;0.80;;
27293;SDS011;14785;52.556;13.430;2023-03-30T14:01:01;4.80;;;1.40;;
27293;SDS011;14785;52.556;13.430;2023-03-30T14:03:48;3.20;;;0.73;;
27293;SDS011;14785;52.556;13.430;2023-03-30T14:06:16;7.45;;;1.60;;
27293;SDS011;14785;52.556;13.430;2023-03-30T14:08:45;1.25;;;0.70;;
27293;SDS011;14785;52.556;13.430;2023-03-30T14:11:19;3.50;;;0.80;;
27293;SDS011;14785;52.556;13.430;2023-03-30T14:13:47;3.10;;;1.20;;
27293;SDS011;14785;52.556;13.430;2023-03-30T14:16:20;1.95;;;0.90;;
27293;SDS011;14785;52.556;13.430;2023-03-30T14:18:48;0.98;;;0.88;;
27293;SDS011;14785;52.556;13.430;2023-03-30T14:21:15;3.75;;;1.00;;
27293;SDS011;14785;52.556;13.430;2023-03-30T14:23:44;0.95;;;0.70;;
27293;SDS011;14785;52.556;13.430;2023-03-30T14:26:20;1.83;;;1.40;;
27293;SDS011;14785;52.556;13.430;2023-03-30T14:28:49;3.40;;;1.42;;
27293;SDS011;14785;52.556;13.430;2023-03-30T14:31:19;0.85;;;0.70;;
27293;SDS011;14785;52.556;13.430;2023-03-30T14:33:45;1.20;;;0.77;;
27293;SDS011;14785;52.556;13.430;2023-03-30T14:38:41;2.47;;;0.95;;
27293;SDS011;14785;52.556;13.430;2023-03-30T14:41:19;10.35;;;1.90;;
27293;SDS011;14785;52.556;13.430;2023-03-30T14:44:05;7.75;;;1.02;;
27293;SDS011;14785;52.556;13.430;2023-03-30T14:46:41;2.85;;;1.75;;
27293;SDS011;14785;52.556;13.430;2023-03-30T14:49:22;2.78;;;1.98;;
27293;SDS011;14785;52.556;13.430;2023-03-30T14:54:33;3.88;;;2.08;;
27293;SDS011;14785;52.556;13.430;2023-03-30T14:57:01;3.00;;;1.35;;
27293;SDS011;14785;52.556;13.430;2023-03-30T14:59:29;4.00;;;2.75;;
27293;SDS011;14785;52.556;13.430;2023-03-30T15:01:59;6.47;;;2.05;;
27293;SDS011;14785;52.556;13.430;2023-03-30T15:06:55;6.10;;;2.72;;
27293;SDS011;14785;52.556;13.430;2023-03-30T15:09:22;4.10;;;1.70;;
27293;SDS011;14785;52.556;13.430;2023-03-30T15:14:18;8.52;;;2.25;;
27293;SDS011;14785;52.556;13.430;2023-03-30T15:16:46;5.72;;;2.05;;
27293;SDS011;14785;52.556;13.430;2023-03-30T15:24:27;3.38;;;1.55;;
27293;SDS011;14785;52.556;13.430;2023-03-30T15:26:57;2.25;;;1.38;;
27293;SDS011;14785;52.556;13.430;2023-03-30T15:29:26;2.50;;;1.23;;
27293;SDS011;14785;52.556;13.430;2023-03-30T15:31:59;2.47;;;1.40;;
27293;SDS011;14785;52.556;13.430;2023-03-30T15:34:35;3.70;;;2.15;;
27293;SDS011;14785;52.556;13.430;2023-03-30T15:37:01;6.00;;;1.92;;
27293;SDS011;14785;52.556;13.430;2023-03-30T15:39:29;1.70;;;1.13;;
27293;SDS011;14785;52.556;13.430;2023-03-30T15:42:01;7.78;;;2.17;;
27293;SDS011;14785;52.556;13.430;2023-03-30T15:44:35;1.58;;;1.15;;
27293;SDS011;14785;52.556;13.430;2023-03-30T15:47:03;5.78;;;2.13;;
27293;SDS011;14785;52.556;13.430;2023-03-30T15:49:40;7.95;;;1.50;;
27293;SDS011;14785;52.556;13.430;2023-03-30T15:52:18;4.18;;;1.50;;
27293;SDS011;14785;52.556;13.430;2023-03-30T15:54:50;2.90;;;1.13;;
27293;SDS011;14785;52.556;13.430;2023-03-30T15:57:22;2.78;;;1.80;;
27293;SDS011;14785;52.556;13.430;2023-03-30T15:59:55;1.50;;;1.10;;
27293;SDS011;14785;52.556;13.430;2023-03-30T16:02:22;2.38;;;1.42;;
27293;SDS011;14785;52.556;13.430;2023-03-30T16:05:00;8.90;;;1.65;;
27293;SDS011;14785;52.556;13.430;2023-03-30T16:07:26;6.05;;;1.60;;
27293;SDS011;14785;52.556;13.430;2023-03-30T16:09:53;4.50;;;1.50;;
27293;SDS011;14785;52.556;13.430;2023-03-30T16:12:28;3.83;;;1.85;;
27293;SDS011;14785;52.556;13.430;2023-03-30T16:14:55;5.03;;;1.92;;
27293;SDS011;14785;52.556;13.430;2023-03-30T16:17:20;2.63;;;1.50;;
27293;SDS011;14785;52.556;13.430;2023-03-30T16:19:47;2.47;;;1.27;;
27293;SDS011;14785;52.556;13.430;2023-03-30T16:22:13;5.30;;;1.47;;
27293;SDS011;14785;52.556;13.430;2023-03-30T16:24:39;4.05;;;1.52;;
27293;SDS011;14785;52.556;13.430;2023-03-30T16:27:06;9.75;;;2.05;;
27293;SDS011;14785;52.556;13.430;2023-03-30T16:29:35;9.70;;;2.40;;
27293;SDS011;14785;52.556;13.430;2023-03-30T16:32:00;10.20;;;2.47;;
27293;SDS011;14785;52.556;13.430;2023-03-30T16:34:27;1.70;;;1.20;;
27293;SDS011;14785;52.556;13.430;2023-03-30T16:36:53;2.15;;;1.45;;
27293;SDS011;14785;52.556;13.430;2023-03-30T16:39:19;6.87;;;2.43;;
27293;SDS011;14785;52.556;13.430;2023-03-30T16:41:47;6.47;;;2.05;;
27293;SDS011;14785;52.556;13.430;2023-03-30T16:44:15;3.55;;;1.40;;
27293;SDS011;14785;52.556;13.430;2023-03-30T16:46:42;3.40;;;1.90;;
27293;SDS011;14785;52.556;13.430;2023-03-30T16:49:12;4.22;;;1.95;;
27293;SDS011;14785;52.556;13.430;2023-03-30T16:51:39;7.47;;;3.33;;
27293;SDS011;14785;52.556;13.430;2023-03-30T16:54:04;3.70;;;1.20;;
27293;SDS011;14785;52.556;13.430;2023-03-30T16:56:30;3.40;;;2.13;;
27293;SDS011;14785;52.556;13.430;2023-03-30T16:58:57;6.10;;;1.63;;
27293;SDS011;14785;52.556;13.430;2023-03-30T17:01:24;4.10;;;2.55;;
27293;SDS011;14785;52.556;13.430;2023-03-30T17:03:53;2.38;;;1.70;;
27293;SDS011;14785;52.556;13.430;2023-03-30T17:06:18;2.38;;;1.35;;
27293;SDS011;14785;52.556;13.430;2023-03-30T17:08:46;4.18;;;1.58;;
27293;SDS011;14785;52.556;13.430;2023-03-30T17:11:12;4.38;;;1.75;;
27293;SDS011;14785;52.556;13.430;2023-03-30T17:16:05;3.55;;;1.50;;
27293;SDS011;14785;52.556;13.430;2023-03-30T17:18:32;2.10;;;1.65;;
27293;SDS011;14785;52.556;13.430;2023-03-30T17:20:58;5.17;;;2.10;;
27293;SDS011;14785;52.556;13.430;2023-03-30T17:23:27;3.85;;;1.77;;
27293;SDS011;14785;52.556;13.430;2023-03-30T17:25:54;4.65;;;2.33;;
27293;SDS011;14785;52.556;13.430;2023-03-30T17:28:23;7.03;;;1.95;;
27293;SDS011;14785;52.556;13.430;2023-03-30T17:30:58;5.15;;;1.80;;
27293;SDS011;14785;52.556;13.430;2023-03-30T17:33:27;3.03;;;1.33;;
27293;SDS011;14785;52.556;13.430;2023-03-30T17:35:59;3.90;;;2.15;;
27293;SDS011;14785;52.556;13.430;2023-03-30T17:38:27;6.03;;;2.17;;
27293;SDS011;14785;52.556;13.430;2023-03-30T17:40:55;9.00;;;2.20;;
27293;SDS011;14785;52.556;13.430;2023-03-30T17:43:21;6.10;;;2.28;;
27293;SDS011;14785;52.556;13.430;2023-03-30T17:45:47;3.90;;;1.63;;
27293;SDS011;14785;52.556;13.430;2023-03-30T17:48:17;2.42;;;1.92;;
27293;SDS011;14785;52.556;13.430;2023-03-30T17:50:45;3.17;;;1.52;;
27293;SDS011;14785;52.556;13.430;2023-03-30T17:53:13;6.28;;;1.98;;
27293;SDS011;14785;52.556;13.430;2023-03-30T17:55:47;3.65;;;1.52;;
27293;SDS011;14785;52.556;13.430;2023-03-30T18:00:48;5.38;;;2.58;;
27293;SDS011;14785;52.556;13.430;2023-03-30T18:03:19;2.30;;;1.65;;
27293;SDS011;14785;52.556;13.430;2023-03-30T18:05:46;4.38;;;2.15;;
27293;SDS011;14785;52.556;13.430;2023-03-30T18:08:13;5.15;;;1.88;;
27293;SDS011;14785;52.556;13.430;2023-03-30T18:10:41;4.25;;;2.25;;
27293;SDS011;14785;52.556;13.430;2023-03-30T18:13:09;6.57;;;2.63;;
27293;SDS011;14785;52.556;13.430;2023-03-30T18:15:35;3.37;;;1.93;;
27293;SDS011;14785;52.556;13.430;2023-03-30T18:18:01;6.20;;;2.47;;
27293;SDS011;14785;52.556;13.430;2023-03-30T18:23:02;3.03;;;1.80;;